createdAt,value
2022-08-18T00:00:29.570Z,23.41
2022-08-18T00:03:01.144Z,23.44
2022-08-18T00:05:35.182Z,23.45
2022-08-18T00:08:01.788Z,23.49
2022-08-18T00:10:25.841Z,23.55
2022-08-18T00:12:48.698Z,23.59
2022-08-18T00:15:15.179Z,23.69
2022-08-18T00:17:38.250Z,23.70
2022-08-18T00:20:01.398Z,23.83
2022-08-18T00:22:24.144Z,23.90
2022-08-18T00:24:49.805Z,23.99
2022-08-18T00:27:12.514Z,24.13
2022-08-18T00:29:35.217Z,24.09
2022-08-18T00:31:58.668Z,24.07
2022-08-18T00:34:21.452Z,24.07
2022-08-18T00:36:44.032Z,24.20
2022-08-18T00:39:06.778Z,24.17
2022-08-18T00:41:30.081Z,24.16
2022-08-18T00:43:54.622Z,24.20
2022-08-18T00:46:24.733Z,24.09
2022-08-18T00:48:48.554Z,23.90
2022-08-18T00:51:34.938Z,23.90
2022-08-18T00:54:06.084Z,23.99
2022-08-18T00:56:44.684Z,24.03
2022-08-18T00:59:29.806Z,24.00
2022-08-18T01:01:55.767Z,23.89
2022-08-18T01:04:28.286Z,23.90
2022-08-18T01:06:55.092Z,23.86
2022-08-18T01:09:18.423Z,23.82
2022-08-18T01:11:41.496Z,23.75
2022-08-18T01:14:08.601Z,23.75
2022-08-18T01:16:57.327Z,23.82
2022-08-18T01:19:39.808Z,23.82
2022-08-18T01:22:13.451Z,23.70
2022-08-18T01:24:56.615Z,23.83
2022-08-18T01:27:19.364Z,23.86
2022-08-18T01:29:43.603Z,23.79
2022-08-18T01:32:06.445Z,23.76
2022-08-18T01:34:29.175Z,23.61
2022-08-18T01:36:53.327Z,23.58
2022-08-18T01:39:15.930Z,23.61
2022-08-18T01:41:58.585Z,23.76
2022-08-18T01:44:21.126Z,23.75
2022-08-18T01:46:43.737Z,23.80
2022-08-18T01:49:08.496Z,23.66
2022-08-18T01:51:40.247Z,23.73
2022-08-18T01:54:05.310Z,23.77
2022-08-18T01:56:28.333Z,23.75
2022-08-18T01:58:51.106Z,23.72
2022-08-18T02:01:17.952Z,23.48
2022-08-18T02:03:45.155Z,23.41
2022-08-18T02:06:14.691Z,23.38
2022-08-18T02:08:38.421Z,23.41
2022-08-18T02:11:06.964Z,23.34
2022-08-18T02:13:29.963Z,23.27
2022-08-18T02:15:52.648Z,23.27
2022-08-18T02:18:32.534Z,23.21
2022-08-18T02:21:10.394Z,23.15
2022-08-18T02:23:33.388Z,23.12
2022-08-18T02:25:55.926Z,23.11
2022-08-18T02:28:18.565Z,23.11
2022-08-18T02:30:41.284Z,23.08
2022-08-18T02:33:08.534Z,23.07
2022-08-18T02:35:31.164Z,23.04
2022-08-18T02:37:54.600Z,23.01
2022-08-18T02:40:19.099Z,23.04
2022-08-18T02:42:42.305Z,23.14
2022-08-18T02:45:05.374Z,23.12
2022-08-18T02:47:33.744Z,23.03
2022-08-18T02:49:56.423Z,23.06
2022-08-18T02:52:19.041Z,23.17
2022-08-18T02:54:41.551Z,23.25
2022-08-18T02:57:12.687Z,23.15
2022-08-18T02:59:35.380Z,23.00
2022-08-18T03:01:58.720Z,22.90
2022-08-18T03:04:30.653Z,22.93
2022-08-18T03:06:55.058Z,22.97
2022-08-18T03:09:18.584Z,22.84
2022-08-18T03:11:41.797Z,22.82
2022-08-18T03:14:11.305Z,22.82
2022-08-18T03:16:35.233Z,22.80
2022-08-18T03:18:57.777Z,22.83
2022-08-18T03:21:23.475Z,22.86
2022-08-18T03:24:09.122Z,22.89
2022-08-18T03:26:32.987Z,22.94
2022-08-18T03:28:56.505Z,22.90
2022-08-18T03:31:21.164Z,22.76
2022-08-18T03:33:47.732Z,22.74
2022-08-18T03:36:13.958Z,22.64
2022-08-18T03:38:36.602Z,22.63
2022-08-18T03:40:59.338Z,22.63
2022-08-18T03:43:50.016Z,22.69
2022-08-18T03:46:06.843Z,22.70
2022-08-18T03:48:30.131Z,22.73
2022-08-18T03:50:52.949Z,22.69
2022-08-18T03:53:15.977Z,22.69
2022-08-18T03:55:41.602Z,22.69
2022-08-18T04:00:44.313Z,22.69
2022-08-18T04:03:08.002Z,22.73
2022-08-18T04:05:30.818Z,22.73
2022-08-18T04:07:54.425Z,22.84
2022-08-18T04:10:19.351Z,22.83
2022-08-18T04:12:42.866Z,22.91
2022-08-18T04:15:06.013Z,22.91
2022-08-18T04:17:29.056Z,22.96
2022-08-18T04:19:53.366Z,22.99
2022-08-18T04:22:17.457Z,23.03
2022-08-18T04:24:42.285Z,23.08
2022-08-18T04:27:07.918Z,23.12
2022-08-18T04:29:30.939Z,23.18
2022-08-18T04:31:53.592Z,23.29
2022-08-18T04:34:16.690Z,23.52
2022-08-18T04:36:41.191Z,23.72
2022-08-18T04:39:06.365Z,23.97
2022-08-18T04:41:29.512Z,24.12
2022-08-18T04:43:52.670Z,24.12
2022-08-18T04:46:15.831Z,24.12
2022-08-18T04:48:41.792Z,23.99
2022-08-18T04:52:30.880Z,23.90
2022-08-18T04:54:02.152Z,23.99
2022-08-18T04:56:28.055Z,23.99
2022-08-18T04:58:52.152Z,23.94
2022-08-18T05:01:14.797Z,23.99
2022-08-18T05:03:41.319Z,23.97
2022-08-18T05:06:12.824Z,24.07
2022-08-18T05:08:35.519Z,24.12
2022-08-18T05:11:03.650Z,24.23
2022-08-18T05:13:26.776Z,24.21
2022-08-18T05:16:11.817Z,24.28
2022-08-18T05:18:42.673Z,24.23
2022-08-18T05:21:05.983Z,24.30
2022-08-18T05:23:32.944Z,24.28
2022-08-18T05:26:06.306Z,24.55
2022-08-18T05:28:29.316Z,24.54
2022-08-18T05:30:52.479Z,24.96
2022-08-18T05:33:15.093Z,25.34
2022-08-18T05:35:50.696Z,25.73
2022-08-18T05:38:42.565Z,26.15
2022-08-18T05:41:26.932Z,27.32
2022-08-18T05:43:52.161Z,27.89
2022-08-18T05:46:16.329Z,27.53
2022-08-18T05:48:45.164Z,27.22
2022-08-18T05:51:16.904Z,26.73
2022-08-18T05:54:00.229Z,26.30
2022-08-18T05:56:44.750Z,26.09
2022-08-18T05:59:08.668Z,26.28
2022-08-18T06:01:44.307Z,26.76
2022-08-18T06:04:22.405Z,27.31
2022-08-18T06:06:47.975Z,27.02
2022-08-18T06:09:17.140Z,26.81
2022-08-18T06:11:39.878Z,26.70
2022-08-18T06:14:02.585Z,26.39
2022-08-18T06:16:46.406Z,26.29
2022-08-18T06:19:39.966Z,26.37
2022-08-18T06:22:48.157Z,26.60
2022-08-18T06:25:27.184Z,26.65
2022-08-18T06:28:01.402Z,26.63
2022-08-18T06:30:40.383Z,26.77
2022-08-18T06:33:29.806Z,26.67
2022-08-18T06:36:00.713Z,26.74
2022-08-18T06:38:51.460Z,26.71
2022-08-18T06:41:38.023Z,26.74
2022-08-18T06:44:14.035Z,26.88
2022-08-18T06:47:04.490Z,26.95
2022-08-18T06:49:45.443Z,27.19
2022-08-18T06:52:30.463Z,26.97
2022-08-18T06:54:55.718Z,27.15
2022-08-18T06:57:28.406Z,27.31
2022-08-18T07:00:22.607Z,27.32
2022-08-18T07:02:57.687Z,27.28
2022-08-18T07:05:40.666Z,27.39
2022-08-18T07:08:12.370Z,27.62
2022-08-18T07:10:39.357Z,27.73
2022-08-18T07:13:38.176Z,27.83
2022-08-18T07:16:30.173Z,27.76
2022-08-18T07:19:12.650Z,28.10
2022-08-18T07:21:38.176Z,28.14
2022-08-18T07:24:25.197Z,28.35
2022-08-18T07:27:01.578Z,28.15
2022-08-18T07:29:24.354Z,28.21
2022-08-18T07:31:51.653Z,28.37
2022-08-18T07:34:25.615Z,28.55
2022-08-18T07:37:00.185Z,28.49
2022-08-18T07:39:28.007Z,28.75
2022-08-18T07:42:53.564Z,28.89
2022-08-18T07:45:04.503Z,28.96
2022-08-18T07:47:50.473Z,29.02
2022-08-18T07:50:31.343Z,29.08
2022-08-18T07:53:36.902Z,29.11
2022-08-18T07:56:06.595Z,29.13
2022-08-18T07:58:45.433Z,29.35
2022-08-18T08:01:33.601Z,29.55
2022-08-18T08:04:25.812Z,29.62
2022-08-18T08:07:22.868Z,29.69
2022-08-18T08:10:01.105Z,29.62
2022-08-18T08:12:48.503Z,29.66
2022-08-18T08:15:28.181Z,29.55
2022-08-18T08:17:56.126Z,29.50
2022-08-18T08:20:28.875Z,29.71
2022-08-18T08:23:05.941Z,29.73
2022-08-18T08:25:49.076Z,29.90
2022-08-18T08:28:40.391Z,30.09
2022-08-18T08:31:36.288Z,30.18
2022-08-18T08:34:27.560Z,30.06
2022-08-18T08:37:05.932Z,30.21
2022-08-18T08:39:46.767Z,30.26
2022-08-18T08:42:30.437Z,30.30
2022-08-18T08:45:03.708Z,30.45
2022-08-18T08:47:39.916Z,30.44
2022-08-18T08:50:08.172Z,30.31
2022-08-18T08:52:40.251Z,30.33
2022-08-18T08:55:18.816Z,30.47
2022-08-18T08:57:58.656Z,30.60
2022-08-18T09:00:41.787Z,30.57
2022-08-18T09:03:31.720Z,30.69
2022-08-18T09:06:00.028Z,30.79
2022-08-18T09:08:44.437Z,30.95
2022-08-18T09:11:18.997Z,30.85
2022-08-18T09:13:59.640Z,31.06
2022-08-18T09:16:37.625Z,31.12
2022-08-18T09:19:31.146Z,31.26
2022-08-18T09:22:01.181Z,31.23
2022-08-18T09:24:39.193Z,31.29
2022-08-18T09:27:04.555Z,31.33
2022-08-18T09:29:49.843Z,31.27
2022-08-18T09:32:22.666Z,31.22
2022-08-18T09:34:55.956Z,31.44
2022-08-18T09:37:26.471Z,31.53
2022-08-18T09:41:02.804Z,31.50
2022-08-18T09:43:55.793Z,31.61
2022-08-18T09:46:41.331Z,31.66
2022-08-18T09:49:27.921Z,31.94
2022-08-18T09:52:33.748Z,31.87
2022-08-18T09:55:00.237Z,31.92
2022-08-18T09:57:25.393Z,32.02
2022-08-18T09:59:49.230Z,32.25
2022-08-18T10:02:29.129Z,32.29
2022-08-18T10:05:21.168Z,32.26
2022-08-18T10:07:57.171Z,32.36
2022-08-18T10:11:01.646Z,32.44
2022-08-18T10:17:13.334Z,32.44
2022-08-18T10:19:49.912Z,32.53
2022-08-18T10:22:36.462Z,32.53
2022-08-18T10:25:09.228Z,32.73
2022-08-18T10:27:44.435Z,32.64
2022-08-18T10:30:56.767Z,32.62
2022-08-18T10:33:57.916Z,32.98
2022-08-18T10:39:41.792Z,33.24
2022-08-18T10:42:14.989Z,33.37
2022-08-18T10:44:43.936Z,33.49
2022-08-18T10:47:12.080Z,33.31
2022-08-18T10:49:36.855Z,33.22
2022-08-18T10:52:22.490Z,33.29
2022-08-18T10:54:57.154Z,33.24
2022-08-18T10:57:30.023Z,33.07
2022-08-18T11:00:17.530Z,33.19
2022-08-18T11:06:03.185Z,33.37
2022-08-18T11:08:26.533Z,33.41
2022-08-18T11:14:20.777Z,33.46
2022-08-18T11:17:12.669Z,33.51
2022-08-18T11:19:42.117Z,33.55
2022-08-18T11:22:05.950Z,33.38
2022-08-18T11:24:35.504Z,33.56
2022-08-18T11:27:03.985Z,33.55
2022-08-18T11:29:42.046Z,33.66
2022-08-18T11:34:54.184Z,33.62
2022-08-18T11:37:21.786Z,33.72
2022-08-18T11:39:49.959Z,33.70
2022-08-18T11:42:25.002Z,33.69
2022-08-18T11:44:48.812Z,33.63
2022-08-18T11:47:23.629Z,33.68
2022-08-18T11:50:25.920Z,33.68
2022-08-18T11:52:53.901Z,33.69
2022-08-18T11:55:33.772Z,33.85
2022-08-18T11:57:59.760Z,33.88
2022-08-18T12:00:42.583Z,33.94
2022-08-18T12:03:10.723Z,33.90
2022-08-18T12:05:54.197Z,34.07
2022-08-18T12:08:56.961Z,34.27
2022-08-18T12:11:27.978Z,34.24
2022-08-18T12:14:30.580Z,34.30
2022-08-18T12:16:50.794Z,34.07
2022-08-18T12:19:17.371Z,33.89
2022-08-18T12:21:47.074Z,33.82
2022-08-18T12:24:26.055Z,33.99
2022-08-18T12:26:52.054Z,34.16
2022-08-18T12:29:18.456Z,34.07
2022-08-18T12:31:48.093Z,34.11
2022-08-18T12:36:57.420Z,34.23
2022-08-18T12:39:20.384Z,34.28
2022-08-18T12:41:43.309Z,34.33
2022-08-18T12:44:13.151Z,34.38
2022-08-18T12:46:36.643Z,34.44
2022-08-18T12:48:59.358Z,34.43
2022-08-18T12:51:24.946Z,34.43
2022-08-18T12:53:59.498Z,34.49
2022-08-18T12:56:30.520Z,34.52
2022-08-18T12:58:53.880Z,34.67
2022-08-18T13:01:19.110Z,34.65
2022-08-18T13:03:42.571Z,34.94
2022-08-18T13:06:05.966Z,34.94
2022-08-18T13:08:33.494Z,34.79
2022-08-18T13:10:58.280Z,34.91
2022-08-18T13:13:21.950Z,34.89
2022-08-18T13:15:58.132Z,34.76
2022-08-18T13:18:21.979Z,34.81
2022-08-18T13:20:51.394Z,34.89
2022-08-18T13:23:14.733Z,35.05
2022-08-18T13:25:41.897Z,34.98
2022-08-18T13:28:09.645Z,35.12
2022-08-18T13:30:32.929Z,35.16
2022-08-18T13:33:00.224Z,35.42
2022-08-18T13:35:29.913Z,35.44
2022-08-18T13:37:57.987Z,35.67
2022-08-18T13:40:22.467Z,35.70
2022-08-18T13:42:50.862Z,35.62
2022-08-18T13:45:24.710Z,35.67
2022-08-18T13:47:49.385Z,35.58
2022-08-18T13:50:16.121Z,35.09
2022-08-18T13:52:44.392Z,35.26
2022-08-18T13:55:12.003Z,35.20
2022-08-18T13:57:38.451Z,35.40
2022-08-18T14:00:01.047Z,35.51
2022-08-18T14:02:26.874Z,35.50
2022-08-18T14:05:10.322Z,35.32
2022-08-18T14:07:35.279Z,35.09
2022-08-18T14:09:58.857Z,35.33
2022-08-18T14:12:33.070Z,35.46
2022-08-18T14:14:56.917Z,35.46
2022-08-18T14:17:22.860Z,35.26
2022-08-18T14:20:04.446Z,35.07
2022-08-18T14:22:45.710Z,35.25
2022-08-18T14:25:27.629Z,35.39
2022-08-18T14:27:56.853Z,35.43
2022-08-18T14:30:20.426Z,35.34
2022-08-18T14:32:49.194Z,35.51
2022-08-18T14:36:04.495Z,35.53
2022-08-18T14:37:56.517Z,35.33
2022-08-18T14:40:20.240Z,35.30
2022-08-18T14:42:54.417Z,35.05
2022-08-18T14:45:31.376Z,35.07
2022-08-18T14:47:57.917Z,34.99
2022-08-18T14:50:21.852Z,34.85
2022-08-18T14:52:51.211Z,34.85
2022-08-18T14:55:15.468Z,34.89
2022-08-18T14:57:39.306Z,35.16
2022-08-18T15:00:08.505Z,34.91
2022-08-18T15:02:36.166Z,34.78
2022-08-18T15:04:58.794Z,34.78
2022-08-18T15:07:23.877Z,34.65
2022-08-18T15:09:47.176Z,34.67
2022-08-18T15:12:10.708Z,34.64
2022-08-18T15:14:37.780Z,34.55
2022-08-18T15:17:13.179Z,34.45
2022-08-18T15:19:58.287Z,34.44
2022-08-18T15:22:38.871Z,34.68
2022-08-18T15:25:24.106Z,34.82
2022-08-18T15:27:46.896Z,34.58
2022-08-18T15:30:19.470Z,34.57
2022-08-18T15:32:46.822Z,34.76
2022-08-18T15:35:16.379Z,34.85
2022-08-18T15:37:39.822Z,34.64
2022-08-18T15:40:30.142Z,34.47
2022-08-18T15:43:01.472Z,34.43
2022-08-18T15:45:27.414Z,34.43
2022-08-18T15:47:58.175Z,34.33
2022-08-18T15:50:26.123Z,34.27
2022-08-18T15:53:00.687Z,34.14
2022-08-18T15:55:28.134Z,34.16
2022-08-18T15:57:56.768Z,34.11
2022-08-18T16:00:21.831Z,34.24
2022-08-18T16:02:51.714Z,34.17
2022-08-18T16:05:14.578Z,34.38
2022-08-18T16:07:41.328Z,34.23
2022-08-18T16:10:08.455Z,34.24
2022-08-18T16:12:31.114Z,34.19
2022-08-18T16:14:53.807Z,34.36
2022-08-18T16:17:23.752Z,34.45
2022-08-18T16:19:52.631Z,34.47
2022-08-18T16:22:16.138Z,34.38
2022-08-18T16:24:40.390Z,34.16
2022-08-18T16:27:02.989Z,34.10
2022-08-18T16:29:26.179Z,33.94
2022-08-18T16:31:49.195Z,33.89
2022-08-18T16:34:12.095Z,33.79
2022-08-18T16:36:34.949Z,33.83
2022-08-18T16:38:58.463Z,33.80
2022-08-18T16:41:21.371Z,33.76
2022-08-18T16:43:46.425Z,33.83
2022-08-18T16:46:23.246Z,33.80
2022-08-18T16:48:46.012Z,33.79
2022-08-18T16:51:12.703Z,33.69
2022-08-18T16:53:40.287Z,33.61
2022-08-18T16:56:03.381Z,33.58
2022-08-18T16:58:44.799Z,33.45
2022-08-18T17:01:26.307Z,33.27
2022-08-18T17:04:13.574Z,33.32
2022-08-18T17:06:38.778Z,33.11
2022-08-18T17:09:10.864Z,33.00
2022-08-18T17:11:33.545Z,32.73
2022-08-18T17:14:00.050Z,32.66
2022-08-18T17:16:24.954Z,32.60
2022-08-18T17:18:48.926Z,32.37
2022-08-18T17:21:15.469Z,32.24
2022-08-18T17:23:39.129Z,32.05
2022-08-18T17:26:02.630Z,31.84
2022-08-18T17:28:39.518Z,31.70
2022-08-18T17:31:07.685Z,31.67
2022-08-18T17:33:34.106Z,31.82
2022-08-18T17:36:03.759Z,31.77
2022-08-18T17:38:36.405Z,31.64
2022-08-18T17:41:00.212Z,31.50
2022-08-18T17:43:25.864Z,31.46
2022-08-18T17:46:00.492Z,31.36
2022-08-18T17:48:29.037Z,31.29
2022-08-18T17:51:25.093Z,31.23
2022-08-18T17:53:48.388Z,31.16
2022-08-18T17:56:36.320Z,31.12
2022-08-18T17:59:07.280Z,30.92
2022-08-18T18:02:19.014Z,30.75
2022-08-18T18:04:53.293Z,30.63
2022-08-18T18:07:53.438Z,30.43
2022-08-18T18:13:32.556Z,30.28
2022-08-18T18:15:57.867Z,30.28
2022-08-18T18:18:32.233Z,30.20
2022-08-18T18:21:12.625Z,30.24
2022-08-18T18:23:39.349Z,30.16
2022-08-18T18:26:19.353Z,30.14
2022-08-18T18:28:42.001Z,30.16
2022-08-18T18:31:26.950Z,30.07
2022-08-18T18:33:56.966Z,30.09
2022-08-18T18:36:37.149Z,30.06
2022-08-18T18:39:23.119Z,29.95
2022-08-18T18:42:15.665Z,29.80
2022-08-18T18:44:48.256Z,29.72
2022-08-18T18:47:37.697Z,29.73
2022-08-18T18:50:08.959Z,29.61
2022-08-18T18:52:49.760Z,29.52
2022-08-18T18:55:19.313Z,29.48
2022-08-18T18:57:51.200Z,29.47
2022-08-18T19:00:23.160Z,29.50
2022-08-18T19:03:02.572Z,29.41
2022-08-18T19:05:29.008Z,29.44
2022-08-18T19:08:03.904Z,29.37
2022-08-18T19:10:35.285Z,29.27
2022-08-18T19:13:03.361Z,29.25
2022-08-18T19:15:27.130Z,29.24
2022-08-18T19:18:21.890Z,29.28
2022-08-18T19:22:03.799Z,29.25
2022-08-18T19:24:04.628Z,29.25
2022-08-18T19:26:33.394Z,29.24
2022-08-18T19:29:12.850Z,29.14
2022-08-18T19:31:40.602Z,29.06
2022-08-18T19:34:09.576Z,29.04
2022-08-18T19:36:49.460Z,29.02
2022-08-18T19:39:17.986Z,29.02
2022-08-18T19:42:05.620Z,29.03
2022-08-18T19:44:55.379Z,29.00
2022-08-18T19:47:31.862Z,28.93
2022-08-18T19:50:18.861Z,28.72
2022-08-18T19:53:26.065Z,28.45
2022-08-18T19:55:57.839Z,28.35
2022-08-18T19:58:49.221Z,28.28
2022-08-18T20:01:41.034Z,28.08
2022-08-18T20:04:33.471Z,27.97
2022-08-18T20:07:05.772Z,27.96
2022-08-18T20:09:46.135Z,27.91
2022-08-18T20:12:48.214Z,27.89
2022-08-18T20:15:18.020Z,27.79
2022-08-18T20:18:19.645Z,27.79
2022-08-18T20:20:42.303Z,27.73
2022-08-18T20:23:58.933Z,27.76
2022-08-18T20:26:40.286Z,27.73
2022-08-18T20:29:03.866Z,27.77
2022-08-18T20:31:43.563Z,27.73
2022-08-18T20:34:14.397Z,27.66
2022-08-18T20:36:40.056Z,27.67
2022-08-18T20:39:40.959Z,27.64
2022-08-18T20:42:06.374Z,27.59
2022-08-18T20:44:50.651Z,27.53
2022-08-18T20:47:38.583Z,27.53
2022-08-18T20:50:23.056Z,27.46
2022-08-18T20:53:00.679Z,27.41
2022-08-18T20:55:41.181Z,27.39
2022-08-18T20:58:12.310Z,27.38
2022-08-18T21:00:37.442Z,27.36
2022-08-18T21:03:07.251Z,27.33
2022-08-18T21:05:36.094Z,27.35
2022-08-18T21:08:16.218Z,27.31
2022-08-18T21:10:53.483Z,27.28
2022-08-18T21:13:38.621Z,27.28
2022-08-18T21:16:01.399Z,27.25
2022-08-18T21:18:25.468Z,27.25
2022-08-18T21:20:50.303Z,27.25
2022-08-18T21:23:14.221Z,27.26
2022-08-18T21:25:50.540Z,27.19
2022-08-18T21:28:13.495Z,27.21
2022-08-18T21:30:36.135Z,27.24
2022-08-18T21:32:59.365Z,27.28
2022-08-18T21:35:34.718Z,27.16
2022-08-18T21:38:00.574Z,27.33
2022-08-18T21:40:47.285Z,27.32
2022-08-18T21:43:12.709Z,27.21
2022-08-18T21:45:47.817Z,27.25
2022-08-18T21:48:11.615Z,26.99
2022-08-18T21:50:35.206Z,27.06
2022-08-18T21:53:05.351Z,27.05
2022-08-18T21:55:35.763Z,26.95
2022-08-18T21:58:01.356Z,26.95
2022-08-18T22:00:29.192Z,26.90
2022-08-18T22:03:28.317Z,26.94
2022-08-18T22:06:16.062Z,27.08
2022-08-18T22:09:40.557Z,27.04
2022-08-18T22:12:40.648Z,26.92
2022-08-18T22:15:17.416Z,26.67
2022-08-18T22:17:52.254Z,26.59
2022-08-18T22:20:47.638Z,26.60
2022-08-18T22:23:32.019Z,26.61
2022-08-18T22:26:14.095Z,26.64
2022-08-18T22:28:42.268Z,26.63
2022-08-18T22:31:05.903Z,26.64
2022-08-18T22:33:28.577Z,26.53
2022-08-18T22:35:57.565Z,26.54
2022-08-18T22:38:20.650Z,26.47
2022-08-18T22:40:43.386Z,26.39
2022-08-18T22:43:06.092Z,26.47
2022-08-18T22:45:28.731Z,26.49
2022-08-18T22:47:51.359Z,26.40
2022-08-18T22:50:14.360Z,26.33
2022-08-18T22:52:42.109Z,26.29
2022-08-18T22:55:08.150Z,26.26
2022-08-18T22:57:34.505Z,26.22
2022-08-18T22:59:58.896Z,26.29
2022-08-18T23:02:22.965Z,26.19
2022-08-18T23:04:45.921Z,26.19
2022-08-18T23:07:08.776Z,26.12
2022-08-18T23:09:33.841Z,26.19
2022-08-18T23:12:01.739Z,26.13
2022-08-18T23:14:24.920Z,26.03
2022-08-18T23:16:48.108Z,26.03
2022-08-18T23:19:13.220Z,25.95
2022-08-18T23:21:35.990Z,25.89
2022-08-18T23:23:58.694Z,25.86
2022-08-18T23:26:23.412Z,25.80
2022-08-18T23:28:52.407Z,25.77
2022-08-18T23:31:16.382Z,25.73
2022-08-18T23:33:38.925Z,25.71
2022-08-18T23:36:01.575Z,25.63
2022-08-18T23:38:31.852Z,25.58
2022-08-18T23:40:57.261Z,25.57
2022-08-18T23:43:20.354Z,25.47
2022-08-18T23:45:47.602Z,25.46
2022-08-18T23:48:10.997Z,25.44
2022-08-18T23:50:34.695Z,25.38
2022-08-18T23:52:58.751Z,25.34
2022-08-18T23:55:21.353Z,25.31
2022-08-18T23:57:43.906Z,25.30
